Time;durP1;ratioP1;P1;durP2;ratioP2;P2;SDS_P1;SDS_P2;PMS_P1;PMS_P2;Temp;Humidity;BMP_temperature;BMP_pressure;BME280_temperature;BME280_humidity;BME280_pressure;Samples;Min_cycle;Max_cycle;Signal;HPM_P1;HPM_P2
2023/10/11 00:00:24;;;;;;;9.98;4.45;;;;;;;12.95;53.37;101041.69;4923767;28;20019;-73
2023/10/11 00:02:48;;;;;;;11.88;5.40;;;;;;;12.37;55.27;101042.59;4921236;28;20039;-73
2023/10/11 00:05:14;;;;;;;11.18;5.22;;;;;;;12.57;54.79;101037.28;4915465;28;20055;-73
2023/10/11 00:07:40;;;;;;;10.82;4.32;;;;;;;12.84;54.06;101027.31;4928352;28;20047;-73
2023/10/11 00:10:10;;;;;;;9.85;4.47;;;;;;;12.40;55.51;101042.44;4919199;28;20043;-73
2023/10/11 00:12:41;;;;;;;9.93;4.47;;;;;;;12.66;54.36;101039.47;4918212;28;20123;-73
2023/10/11 00:15:10;;;;;;;8.77;4.50;;;;;;;12.77;54.23;101032.94;4918121;28;20081;-70
2023/10/11 00:17:39;;;;;;;7.88;5.00;;;;;;;12.65;54.85;101040.41;4911999;28;20035;-70
2023/10/11 00:20:19;;;;;;;8.38;4.82;;;;;;;12.45;55.48;101046.56;4932856;28;20040;-70
2023/10/11 00:22:45;;;;;;;13.50;4.40;;;;;;;12.51;55.70;101042.78;4918551;28;20036;-70
2023/10/11 00:25:23;;;;;;;13.57;5.03;;;;;;;12.32;56.02;101032.31;4935815;28;20133;-71
2023/10/11 00:27:49;;;;;;;12.75;5.45;;;;;;;12.51;55.65;101032.31;4917360;28;20326;-70
2023/10/11 00:30:17;;;;;;;13.68;5.55;;;;;;;12.43;56.19;101026.59;4919746;28;20048;-71
2023/10/11 00:32:45;;;;;;;15.70;4.93;;;;;;;12.44;56.05;101028.28;4917385;28;22801;-72
2023/10/11 00:35:18;;;;;;;25.83;6.45;;;;;;;12.59;55.88;101022.34;4935690;28;20095;-72
2023/10/11 00:37:49;;;;;;;12.35;5.32;;;;;;;12.34;56.91;101030.47;4921040;28;20070;-71
2023/10/11 00:40:25;;;;;;;14.93;5.70;;;;;;;12.78;55.60;101022.38;4919795;28;20060;-71
2023/10/11 00:42:51;;;;;;;14.18;5.80;;;;;;;12.83;55.28;101016.91;4935292;28;20514;-70
2023/10/11 00:45:17;;;;;;;13.18;5.43;;;;;;;12.83;55.52;101016.91;4904846;28;20047;-70
2023/10/11 00:47:45;;;;;;;15.30;6.25;;;;;;;12.78;55.91;101008.38;4899590;29;20728;-70
2023/10/11 00:50:14;;;;;;;14.20;5.90;;;;;;;12.73;56.37;101016.47;4912834;28;20051;-70
2023/10/11 00:52:45;;;;;;;11.98;5.78;;;;;;;12.73;56.50;101015.63;4917436;28;20399;-70
2023/10/11 00:55:18;;;;;;;17.88;5.65;;;;;;;12.84;56.22;101023.84;4934676;28;20047;-70
2023/10/11 00:57:49;;;;;;;18.88;6.20;;;;;;;12.74;56.51;101020.81;4920764;28;20050;-70
2023/10/11 01:00:17;;;;;;;8.75;5.88;;;;;;;12.74;56.71;101012.94;4923378;28;20051;-70
2023/10/11 01:02:46;;;;;;;21.30;6.68;;;;;;;12.82;56.64;101008.16;4920836;28;20039;-70
2023/10/11 01:05:12;;;;;;;24.15;6.82;;;;;;;12.81;56.99;101005.63;4934640;28;20094;-70
2023/10/11 01:07:39;;;;;;;15.88;6.47;;;;;;;12.32;58.79;101007.88;4915020;28;20027;-70
2023/10/11 01:10:08;;;;;;;18.70;6.97;;;;;;;12.45;58.46;101001.16;4920370;28;20092;-69
2023/10/11 01:12:34;;;;;;;14.55;6.88;;;;;;;12.15;59.80;101004.22;4915822;28;20032;-67
2023/10/11 01:15:01;;;;;;;21.35;7.07;;;;;;;12.33;58.96;100991.22;4935272;28;20138;-70
2023/10/11 01:17:27;;;;;;;22.38;8.23;;;;;;;12.46;58.65;100997.59;4922713;28;20031;-77
2023/10/11 01:19:53;;;;;;;14.98;7.25;;;;;;;12.41;58.92;101000.44;4922368;28;20634;-74
2023/10/11 01:22:19;;;;;;;17.23;7.65;;;;;;;11.97;60.53;100989.31;4911480;28;20384;-76
2023/10/11 01:24:47;;;;;;;16.35;8.30;;;;;;;11.96;61.19;100992.88;4934865;28;20055;-76
2023/10/11 01:27:15;;;;;;;20.55;7.10;;;;;;;12.19;60.46;100987.44;4920725;28;20027;-77
2023/10/11 01:29:41;;;;;;;12.85;7.32;;;;;;;12.45;59.55;100991.50;4924281;28;20040;-75
2023/10/11 01:32:06;;;;;;;14.73;7.35;;;;;;;12.51;59.51;100993.00;4925845;28;20035;-78
2023/10/11 01:34:32;;;;;;;17.90;8.55;;;;;;;12.32;60.44;100982.50;4920945;28;20039;-75
2023/10/11 01:36:59;;;;;;;25.73;8.25;;;;;;;12.12;61.04;100982.56;4934136;28;20094;-77
2023/10/11 01:39:24;;;;;;;18.77;7.47;;;;;;;12.17;61.23;100977.97;4922510;28;20178;-75
2023/10/11 01:41:54;;;;;;;27.05;10.65;;;;;;;12.36;60.25;100981.47;4930902;28;20583;-75
2023/10/11 01:44:22;;;;;;;23.13;9.55;;;;;;;12.19;61.34;100982.22;4918954;28;20079;-76
2023/10/11 01:46:48;;;;;;;22.17;8.65;;;;;;;12.08;61.45;100982.69;4905429;28;20035;-76
2023/10/11 01:49:14;;;;;;;18.88;9.30;;;;;;;12.43;60.86;100974.16;4935099;28;20062;-75
2023/10/11 01:51:46;;;;;;;23.85;9.40;;;;;;;12.41;60.75;100978.63;4913331;28;20540;-75
2023/10/11 01:54:12;;;;;;;14.70;8.25;;;;;;;12.23;61.18;100968.06;4936644;28;20058;-76
2023/10/11 01:56:39;;;;;;;19.67;8.07;;;;;;;12.54;60.83;100958.78;4923464;28;20118;-75
2023/10/11 01:59:04;;;;;;;22.40;9.85;;;;;;;12.19;61.76;100969.09;4912196;28;20051;-75
2023/10/11 02:01:38;;;;;;;21.23;10.13;;;;;;;12.58;60.51;100965.59;4919931;28;20494;-75
2023/10/11 02:04:10;;;;;;;17.58;8.23;;;;;;;12.65;60.35;100971.38;4924496;28;20043;-74
2023/10/11 02:06:38;;;;;;;17.27;8.27;;;;;;;12.86;59.28;100964.28;4917011;28;20039;-80
2023/10/11 02:09:04;;;;;;;40.88;11.18;;;;;;;12.49;61.05;100968.59;4910216;28;20109;-79
2023/10/11 02:11:30;;;;;;;28.00;9.82;;;;;;;12.61;60.56;100954.94;4919464;28;20032;-78
2023/10/11 02:14:00;;;;;;;22.05;8.48;;;;;;;12.53;60.66;100957.06;4928275;28;20155;-76
2023/10/11 02:16:28;;;;;;;22.70;8.80;;;;;;;12.18;62.06;100958.69;4900894;28;20367;-70
2023/10/11 02:19:00;;;;;;;19.45;8.20;;;;;;;12.40;60.95;100961.19;4916561;28;20044;-72
2023/10/11 02:21:29;;;;;;;;;;;;;;;12.65;60.01;100950.41;4933674;28;20253;-68
2023/10/11 02:23:59;;;;;;;18.95;8.75;;;;;;;12.46;60.29;100945.16;4933582;28;20441;-70
2023/10/11 02:26:30;;;;;;;19.02;9.13;;;;;;;12.38;60.98;100955.16;4932067;28;20047;-69
2023/10/11 02:29:00;;;;;;;20.42;7.88;;;;;;;12.14;61.49;100959.78;4924309;28;20035;-68
2023/10/11 02:31:27;;;;;;;19.55;8.73;;;;;;;12.56;59.97;100954.31;4919941;28;20097;-68
2023/10/11 02:34:04;;;;;;;19.60;8.30;;;;;;;11.96;62.06;100956.22;4914786;28;20034;-69
2023/10/11 02:36:35;;;;;;;21.15;8.18;;;;;;;12.31;60.61;100946.72;4934819;28;20031;-70
2023/10/11 02:39:05;;;;;;;13.63;7.45;;;;;;;12.16;61.68;100931.72;4918446;28;20078;-70
2023/10/11 02:41:32;;;;;;;16.42;9.13;;;;;;;12.33;60.76;100915.22;4916012;28;20426;-70
2023/10/11 02:43:57;;;;;;;21.80;9.07;;;;;;;12.33;61.07;100918.69;4904438;28;20066;-71
2023/10/11 02:46:24;;;;;;;13.98;8.43;;;;;;;12.19;61.62;100915.84;4931130;28;20032;-71
2023/10/11 02:48:54;;;;;;;25.40;9.30;;;;;;;12.23;61.57;100910.41;4944943;28;20043;-71
2023/10/11 02:51:24;;;;;;;21.90;9.05;;;;;;;12.29;61.49;100904.88;4948963;28;20145;-72
2023/10/11 02:53:53;;;;;;;20.27;9.13;;;;;;;12.52;60.67;100900.31;4920874;28;20530;-72
2023/10/11 02:56:19;;;;;;;23.20;8.90;;;;;;;12.36;61.04;100901.97;4939666;28;20050;-74
2023/10/11 02:58:46;;;;;;;24.10;10.50;;;;;;;12.14;61.80;100892.50;4924473;28;20044;-74
2023/10/11 03:01:15;;;;;;;21.40;9.70;;;;;;;12.36;61.53;100894.97;4939285;28;20058;-68
2023/10/11 03:03:43;;;;;;;21.75;9.40;;;;;;;12.17;62.39;100902.81;4930046;28;20075;-65
2023/10/11 03:06:10;;;;;;;18.25;9.43;;;;;;;11.90;63.51;100901.47;4920270;28;20035;-68
2023/10/11 03:08:37;;;;;;;32.70;10.45;;;;;;;12.04;63.04;100902.56;4913967;28;20043;-66
2023/10/11 03:11:08;;;;;;;25.38;8.82;;;;;;;12.08;63.36;100904.09;4919844;28;20098;-68
2023/10/11 03:13:41;;;;;;;25.42;10.57;;;;;;;12.04;63.08;100906.91;4919735;28;20070;-66
2023/10/11 03:16:17;;;;;;;22.92;10.30;;;;;;;11.87;64.16;100905.09;4916876;28;20129;-66
2023/10/11 03:18:46;;;;;;;20.83;10.10;;;;;;;11.98;63.84;100902.00;4927162;28;20039;-68
2023/10/11 03:21:16;;;;;;;22.70;10.90;;;;;;;11.70;64.85;100903.16;4920142;28;20036;-66
2023/10/11 03:23:47;;;;;;;21.83;10.60;;;;;;;11.86;64.66;100898.97;4913442;28;20039;-68
2023/10/11 03:26:23;;;;;;;17.33;10.05;;;;;;;11.98;64.38;100902.00;4920053;28;20063;-68
2023/10/11 03:28:57;;;;;;;33.60;11.38;;;;;;;12.10;63.79;100892.72;4911742;28;20453;-70
2023/10/11 03:31:31;;;;;;;19.92;10.85;;;;;;;12.36;62.74;100896.75;4919298;28;20031;-69
2023/10/11 03:34:10;;;;;;;24.08;10.70;;;;;;;12.43;62.59;100892.91;4916691;28;20059;-69
2023/10/11 03:36:43;;;;;;;23.83;11.23;;;;;;;12.12;63.88;100883.84;4917231;28;20059;-66
2023/10/11 03:39:09;;;;;;;34.55;12.32;;;;;;;11.98;64.49;100870.56;4930710;28;20040;-66
2023/10/11 03:41:36;;;;;;;23.30;10.27;;;;;;;12.00;64.76;100864.31;4913314;28;20050;-68
2023/10/11 03:44:09;;;;;;;31.27;11.63;;;;;;;12.20;63.91;100866.00;4916635;28;20059;-66
2023/10/11 03:46:38;;;;;;;21.17;9.85;;;;;;;12.35;63.37;100868.81;4916646;28;20063;-76
2023/10/11 03:49:35;;;;;;;27.77;12.20;;;;;;;12.40;62.92;100861.56;4924073;28;20438;-76
2023/10/11 03:51:59;;;;;;;25.40;11.48;;;;;;;12.25;63.74;100866.63;4922712;28;20050;-76
2023/10/11 03:54:25;;;;;;;25.65;10.23;;;;;;;12.02;64.50;100877.31;4911733;28;20078;-75
2023/10/11 03:56:53;;;;;;;31.23;12.77;;;;;;;11.89;65.26;100877.06;4927747;28;20119;-76
2023/10/11 03:59:26;;;;;;;21.55;10.73;;;;;;;12.26;63.63;100875.34;4920248;28;20395;-76
2023/10/11 04:01:52;;;;;;;27.88;11.40;;;;;;;12.26;64.01;100865.69;4914916;28;20032;-71
2023/10/11 04:04:20;;;;;;;34.17;10.52;;;;;;;12.13;64.28;100877.69;4907373;28;20315;-72
2023/10/11 04:06:51;;;;;;;31.50;13.18;;;;;;;12.02;65.45;100872.09;4918986;28;20042;-71
2023/10/11 04:09:31;;;;;;;30.80;11.95;;;;;;;12.02;64.70;100866.84;4914553;28;20039;-72
2023/10/11 04:12:00;;;;;;;28.65;10.98;;;;;;;12.37;63.63;100869.59;4914172;28;20035;-71
2023/10/11 04:14:39;;;;;;;30.20;12.10;;;;;;;12.41;63.53;100869.38;4908558;28;20438;-71
2023/10/11 04:19:47;;;;;;;20.88;10.07;;;;;;;12.38;63.42;100869.53;4913262;28;20047;-70
2023/10/11 04:22:16;;;;;;;31.55;9.88;;;;;;;12.12;63.88;100870.75;4914939;28;20047;-68
2023/10/11 04:24:43;;;;;;;34.17;12.25;;;;;;;12.51;63.23;100859.28;4930104;28;20467;-67
2023/10/11 04:29:47;;;;;;;31.95;12.75;;;;;;;12.32;64.14;100850.63;4898304;28;20062;-74
2023/10/11 04:32:14;;;;;;;21.00;12.02;;;;;;;12.06;65.26;100853.53;4915662;28;20031;-75
2023/10/11 04:34:52;;;;;;;31.92;12.93;;;;;;;12.48;63.43;100857.66;4916334;28;20047;-74
2023/10/11 04:37:44;;;;;;;27.98;10.40;;;;;;;12.29;64.07;100854.25;4916127;28;20044;-74
2023/10/11 04:43:08;;;;;;;31.65;11.80;;;;;;;12.06;65.34;100858.78;4919826;28;20454;-74
2023/10/11 04:45:44;;;;;;;24.73;10.95;;;;;;;12.17;64.72;100860.91;4917735;28;20119;-73
2023/10/11 04:48:15;;;;;;;25.77;12.07;;;;;;;12.34;64.29;100856.66;4918765;28;20215;-74
2023/10/11 04:50:50;;;;;;;27.92;12.13;;;;;;;12.59;63.25;100865.00;4913463;28;20474;-74
2023/10/11 04:53:18;;;;;;;29.13;10.75;;;;;;;12.69;63.16;100878.53;4917750;28;20490;-74
2023/10/11 04:56:51;;;;;;;29.42;11.10;;;;;;;12.75;62.70;100872.16;4917529;28;20069;-74
2023/10/11 04:58:51;;;;;;;31.67;11.13;;;;;;;12.72;63.39;100882.81;4913485;28;20035;-73
2023/10/11 05:01:24;;;;;;;27.25;11.35;;;;;;;12.59;63.62;100875.50;4918413;28;20035;-75
2023/10/11 05:03:58;;;;;;;26.10;11.90;;;;;;;12.80;63.31;100875.41;4912857;28;20062;-73
2023/10/11 05:06:39;;;;;;;28.60;11.10;;;;;;;12.85;62.86;100878.66;4918485;28;20039;-74
2023/10/11 05:09:13;;;;;;;27.52;10.40;;;;;;;12.41;64.42;100868.53;4932931;28;20210;-73
2023/10/11 05:11:44;;;;;;;25.17;11.00;;;;;;;12.55;63.88;100867.88;4924397;28;20526;-73
2023/10/11 05:14:37;;;;;;;26.73;10.93;;;;;;;12.78;63.18;100861.50;4933785;28;20628;-73
2023/10/11 05:19:40;;;;;;;29.63;10.57;;;;;;;12.50;64.04;100878.56;4920358;28;20426;-74
2023/10/11 05:22:08;;;;;;;20.85;10.70;;;;;;;12.75;63.36;100880.88;4916903;28;20047;-73
2023/10/11 05:25:12;;;;;;;25.80;9.02;;;;;;;12.62;64.09;100880.59;4915751;28;20499;-73
2023/10/11 05:32:53;;;;;;;28.15;10.75;;;;;;;12.27;65.17;100862.19;4923385;28;20034;-75
2023/10/11 05:35:24;;;;;;;22.67;10.18;;;;;;;12.76;63.35;100873.84;4912172;28;20047;-74
2023/10/11 05:51:33;;;;;;;30.02;9.25;;;;;;;12.93;62.83;100870.41;4936253;28;20031;-74
2023/10/11 05:54:03;;;;;;;29.58;10.25;;;;;;;12.86;63.12;100862.00;4919378;28;20071;-73
2023/10/11 05:56:33;;;;;;;31.25;10.68;;;;;;;12.86;63.38;100854.13;4921619;28;20873;-74
2023/10/11 05:59:10;;;;;;;23.73;9.40;;;;;;;13.02;62.59;100841.91;4914589;28;20138;-74
2023/10/11 06:01:36;;;;;;;27.73;9.57;;;;;;;13.07;62.61;100853.06;4934921;28;20114;-74
2023/10/11 06:04:03;;;;;;;26.13;10.23;;;;;;;12.86;63.52;100849.72;4915007;28;20459;-71
2023/10/11 06:06:38;;;;;;;21.88;8.23;;;;;;;12.76;63.54;100845.00;4927669;28;20043;-72
2023/10/11 06:09:05;;;;;;;25.05;9.70;;;;;;;12.71;63.32;100829.50;4912575;28;20055;-73
2023/10/11 06:11:38;;;;;;;24.38;8.90;;;;;;;13.08;62.47;100838.16;4918866;28;20732;-71
2023/10/11 06:14:05;;;;;;;17.23;8.82;;;;;;;12.79;63.56;100844.88;4913962;28;22339;-72
2023/10/11 06:16:38;;;;;;;24.40;9.68;;;;;;;13.17;62.28;100849.97;4925706;28;20125;-72
2023/10/11 06:19:16;;;;;;;20.63;8.98;;;;;;;13.24;62.01;100859.22;4919578;28;21113;-72
2023/10/11 06:21:56;;;;;;;25.20;9.30;;;;;;;13.36;61.88;100863.84;4919788;28;20063;-73
2023/10/11 06:24:26;;;;;;;24.67;10.27;;;;;;;13.14;62.05;100864.09;4918152;28;20489;-71
2023/10/11 06:26:52;;;;;;;22.35;8.35;;;;;;;13.02;62.15;100865.53;4915737;28;20031;-72
2023/10/11 06:29:24;;;;;;;16.17;8.63;;;;;;;13.20;61.80;100887.38;4915463;28;20344;-71
2023/10/11 06:31:52;;;;;;;18.17;8.13;;;;;;;13.21;62.04;100885.63;4928517;28;20048;-72
2023/10/11 06:36:51;;;;;;;21.00;8.90;;;;;;;13.35;61.31;100882.28;4914862;28;20615;-72
2023/10/11 06:42:13;;;;;;;21.65;9.52;;;;;;;13.09;62.39;100872.19;4935719;28;21012;-69
2023/10/11 06:44:47;;;;;;;22.10;9.23;;;;;;;13.50;61.02;100877.06;4923026;28;20181;-70
2023/10/11 06:47:13;;;;;;;26.38;8.95;;;;;;;13.27;62.11;100875.66;4924880;28;20062;-70
2023/10/11 06:49:47;;;;;;;21.15;8.63;;;;;;;13.16;62.33;100877.97;4933577;28;20075;-69
2023/10/11 06:52:19;;;;;;;20.40;8.85;;;;;;;13.04;62.72;100876.81;4923703;28;20039;-69
2023/10/11 06:54:47;;;;;;;19.45;8.20;;;;;;;13.41;61.30;100877.56;4920064;28;20617;-69
2023/10/11 06:57:19;;;;;;;18.13;7.13;;;;;;;13.39;61.53;100884.66;4916550;28;20074;-69
2023/10/11 06:59:49;;;;;;;18.70;7.45;;;;;;;13.50;61.38;100887.56;4918925;28;20546;-69
2023/10/11 07:02:31;;;;;;;21.80;7.38;;;;;;;13.57;61.05;100896.03;4923275;28;20642;-68
2023/10/11 07:05:07;;;;;;;19.38;7.32;;;;;;;13.56;60.98;100888.19;4930560;28;20110;-71
2023/10/11 07:07:34;;;;;;;25.02;8.50;;;;;;;13.53;60.98;100887.41;4923027;28;20054;-69
2023/10/11 07:10:04;;;;;;;21.15;8.32;;;;;;;13.47;61.31;100897.38;4914018;28;20108;-70
2023/10/11 07:12:39;;;;;;;27.02;7.78;;;;;;;13.24;61.97;100886.28;4915791;28;20039;-69
2023/10/11 07:15:09;;;;;;;19.73;7.70;;;;;;;12.91;63.00;100883.59;4915260;28;20052;-71
2023/10/11 07:17:38;;;;;;;27.38;7.28;;;;;;;13.29;62.13;100875.56;4915757;28;20281;-71
2023/10/11 07:20:44;;;;;;;32.92;8.55;;;;;;;13.36;61.64;100874.34;4914036;28;20051;-71
2023/10/11 07:22:50;;;;;;;20.92;7.20;;;;;;;13.07;62.88;100868.78;4914767;28;20119;-70
2023/10/11 07:25:36;;;;;;;29.88;8.35;;;;;;;13.52;61.49;100869.97;4931007;28;20044;-68
2023/10/11 07:28:03;;;;;;;20.50;8.15;;;;;;;13.30;62.04;100872.84;4923052;28;20124;-70
2023/10/11 07:30:37;;;;;;;16.42;7.28;;;;;;;13.47;61.64;100866.75;4915683;28;20119;-71
2023/10/11 07:33:04;;;;;;;19.30;7.85;;;;;;;13.30;62.14;100864.16;4928285;28;20035;-71
2023/10/11 07:35:32;;;;;;;26.50;8.85;;;;;;;13.46;61.33;100862.41;4930948;28;20048;-71
2023/10/11 07:38:00;;;;;;;21.17;7.57;;;;;;;13.80;60.59;100868.53;4916928;28;20138;-70
2023/10/11 07:40:34;;;;;;;20.08;8.00;;;;;;;13.42;61.32;100868.75;4918733;28;20534;-71
2023/10/11 07:43:00;;;;;;;24.90;8.30;;;;;;;13.69;61.03;100876.13;4914551;28;20048;-71
2023/10/11 07:45:27;;;;;;;23.73;7.68;;;;;;;13.38;61.48;100882.94;4915528;28;20043;-71
2023/10/11 07:47:53;;;;;;;24.88;8.55;;;;;;;13.71;60.93;100884.78;4927540;28;20070;-71
2023/10/11 07:50:22;;;;;;;23.05;8.05;;;;;;;13.67;60.99;100883.25;4914729;28;20455;-71
2023/10/11 07:52:48;;;;;;;16.95;7.80;;;;;;;13.55;61.48;100881.25;4916937;28;20183;-71
2023/10/11 07:55:14;;;;;;;16.67;9.10;;;;;;;13.47;61.81;100865.88;4910636;28;20387;-71
2023/10/11 07:57:44;;;;;;;16.88;8.70;;;;;;;13.80;60.79;100871.16;4932256;28;20173;-69
2023/10/11 08:00:17;;;;;;;24.73;8.85;;;;;;;14.01;59.60;100860.41;4914249;28;20056;-71
2023/10/11 08:02:59;;;;;;;20.10;7.25;;;;;;;13.65;61.11;100845.69;4932077;28;21021;-70
2023/10/11 08:05:25;;;;;;;15.75;7.80;;;;;;;13.91;60.19;100854.81;4917333;28;20043;-71
2023/10/11 08:07:55;;;;;;;17.77;7.57;;;;;;;13.73;60.72;100859.28;4915212;28;20110;-70
2023/10/11 08:10:33;;;;;;;24.10;8.32;;;;;;;13.77;60.96;100863.44;4915665;28;20340;-71
2023/10/11 08:13:01;;;;;;;29.30;9.07;;;;;;;14.02;60.41;100867.38;4926290;28;20063;-68
2023/10/11 08:15:26;;;;;;;15.15;7.35;;;;;;;13.84;60.30;100874.47;4913976;28;20071;-69
2023/10/11 08:17:52;;;;;;;20.10;7.65;;;;;;;13.96;60.42;100878.22;4912637;28;20306;-69
2023/10/11 08:20:18;;;;;;;17.15;7.90;;;;;;;13.81;60.60;100867.59;4927880;28;20510;-69
2023/10/11 08:22:47;;;;;;;20.13;8.05;;;;;;;13.89;60.56;100873.28;4930963;28;20043;-69
2023/10/11 08:25:16;;;;;;;24.42;9.50;;;;;;;13.89;60.47;100868.03;4927375;28;21327;-69
2023/10/11 08:27:41;;;;;;;27.05;7.90;;;;;;;13.86;60.34;100868.19;4913998;28;20039;-69
2023/10/11 08:32:42;;;;;;;18.92;7.05;;;;;;;14.14;59.12;100872.81;4913351;28;20031;-69
2023/10/11 08:35:16;;;;;;;18.85;6.32;;;;;;;13.71;60.50;100871.66;4917638;28;20418;-69
2023/10/11 08:37:42;;;;;;;17.63;6.38;;;;;;;13.87;60.43;100888.28;4922039;28;20298;-69
2023/10/11 08:40:20;;;;;;;12.98;6.38;;;;;;;13.93;60.04;100889.75;4901002;28;20237;-69
2023/10/11 08:42:49;;;;;;;20.15;7.15;;;;;;;13.99;60.03;100896.47;4913987;28;20036;-69
2023/10/11 08:45:28;;;;;;;16.95;7.07;;;;;;;13.69;60.30;100889.25;4922988;28;20951;-69
2023/10/11 08:47:53;;;;;;;23.90;6.32;;;;;;;13.67;60.68;100893.75;4917564;28;20486;-69
2023/10/11 08:50:20;;;;;;;22.73;7.82;;;;;;;13.63;60.20;100892.22;4914146;28;20075;-69
2023/10/11 08:52:45;;;;;;;14.95;5.90;;;;;;;13.96;59.81;100896.59;4919605;28;20062;-69
2023/10/11 08:55:13;;;;;;;16.05;6.38;;;;;;;13.93;59.55;100895.84;4915455;28;20164;-69
2023/10/11 08:57:38;;;;;;;21.98;6.10;;;;;;;14.13;58.88;100902.63;4916561;28;20518;-69
2023/10/11 09:00:17;;;;;;;12.57;5.90;;;;;;;14.61;57.63;100894.75;4929806;28;20314;-68
2023/10/11 09:02:48;;;;;;;10.85;5.22;;;;;;;14.17;57.99;100903.34;4917389;28;20039;-69
2023/10/11 09:05:32;;;;;;;15.00;5.47;;;;;;;14.22;58.17;100913.59;4915588;28;20079;-68
2023/10/11 09:07:58;;;;;;;17.65;4.80;;;;;;;14.04;58.65;100903.16;4925798;28;20101;-68
2023/10/11 09:10:32;;;;;;;17.30;5.40;;;;;;;14.05;58.41;100903.97;4916967;28;20127;-68
2023/10/11 09:13:01;;;;;;;14.25;5.15;;;;;;;14.14;58.45;100906.09;4930722;28;20522;-69
2023/10/11 09:15:40;;;;;;;11.85;5.65;;;;;;;14.27;58.22;100908.91;4917718;28;20114;-69
2023/10/11 09:18:13;;;;;;;14.25;5.10;;;;;;;13.86;59.29;100910.22;4918094;28;20063;-69
2023/10/11 09:20:42;;;;;;;19.67;6.03;;;;;;;13.79;59.63;100918.53;4923352;28;20138;-71
2023/10/11 09:23:11;;;;;;;10.90;4.75;;;;;;;13.66;59.82;100918.31;4915483;28;20228;-67
2023/10/11 09:28:46;;;;;;;12.68;5.57;;;;;;;14.24;58.04;100935.38;4923943;28;20047;-70
2023/10/11 09:31:20;;;;;;;9.00;3.92;;;;;;;14.13;58.17;100947.31;4914628;28;20043;-70
2023/10/11 09:33:59;;;;;;;10.05;4.38;;;;;;;13.79;59.53;100939.56;4918618;28;20032;-70
2023/10/11 09:36:28;;;;;;;11.18;4.57;;;;;;;13.99;58.95;100941.13;4917451;28;20491;-71
2023/10/11 09:38:57;;;;;;;15.77;3.60;;;;;;;14.10;58.67;100939.63;4934103;28;20035;-70
2023/10/11 09:41:38;;;;;;;10.30;3.80;;;;;;;14.21;57.96;100936.41;4930547;28;20205;-70
2023/10/11 09:44:05;;;;;;;10.67;4.47;;;;;;;14.25;58.16;100932.66;4913111;28;20386;-69
2023/10/11 09:46:34;;;;;;;10.52;3.33;;;;;;;14.24;57.40;100930.97;4918514;28;20067;-70
2023/10/11 09:49:02;;;;;;;14.85;3.17;;;;;;;14.54;56.58;100938.13;4914416;28;20131;-69
2023/10/11 09:51:28;;;;;;;10.88;3.72;;;;;;;;;;4920557;28;20110;-69
2023/10/11 09:53:56;;;;;;;8.55;2.63;;;;;;;14.49;55.87;100946.28;4934099;28;20489;-70
2023/10/11 09:56:40;;;;;;;8.38;2.17;;;;;;;14.30;56.10;100946.41;4914713;28;20032;-70
2023/10/11 09:59:13;;;;;;;4.72;2.40;;;;;;;14.77;55.22;100950.84;4927344;28;20073;-70
2023/10/11 10:01:55;;;;;;;7.53;2.42;;;;;;;14.31;56.14;100957.78;4916802;28;20096;-70
2023/10/11 10:04:50;;;;;;;9.23;2.55;;;;;;;14.66;55.72;100971.66;4912110;28;20303;-70
2023/10/11 10:07:26;;;;;;;9.65;2.55;;;;;;;14.93;54.91;100957.88;4915738;28;20079;-68
2023/10/11 10:10:00;;;;;;;11.30;2.95;;;;;;;14.58;56.49;100970.38;4917992;28;20036;-70
2023/10/11 10:12:31;;;;;;;7.30;2.95;;;;;;;15.12;54.92;100971.66;4918077;28;20039;-70
2023/10/11 10:15:23;;;;;;;7.30;3.92;;;;;;;14.85;56.24;100973.25;4918132;28;20043;-70
2023/10/11 10:18:03;;;;;;;15.27;4.30;;;;;;;14.74;56.55;100958.91;4915585;28;20047;-67
2023/10/11 10:20:42;;;;;;;13.93;4.65;;;;;;;14.62;57.25;100951.72;4916599;28;20538;-68
2023/10/11 10:23:14;;;;;;;12.30;4.07;;;;;;;14.34;58.03;100952.34;4914906;28;20039;-68
2023/10/11 10:25:40;;;;;;;12.32;3.85;;;;;;;14.36;58.14;100932.91;4918720;28;20114;-68
2023/10/11 10:28:45;;;;;;;12.40;4.60;;;;;;;14.55;57.74;100939.84;4923116;28;20047;-68
2023/10/11 10:31:21;;;;;;;10.73;4.30;;;;;;;14.69;57.63;100937.28;4941665;28;20054;-70
2023/10/11 10:33:51;;;;;;;16.08;5.55;;;;;;;14.99;57.08;100933.81;4932741;28;20804;-67
2023/10/11 10:36:17;;;;;;;11.30;4.35;;;;;;;15.02;57.04;100927.56;4944125;28;20050;-70
2023/10/11 10:38:58;;;;;;;13.30;4.35;;;;;;;15.42;55.51;100926.09;4931534;28;20220;-69
2023/10/11 10:41:25;;;;;;;12.60;5.27;;;;;;;15.40;54.88;100935.84;4930045;28;20027;-67
2023/10/11 10:44:13;;;;;;;11.32;4.28;;;;;;;15.94;54.10;100922.91;4922238;28;20046;-68
2023/10/11 10:46:53;;;;;;;9.98;3.47;;;;;;;16.24;53.47;100927.22;4917417;28;20039;-68
2023/10/11 10:49:44;;;;;;;12.02;3.78;;;;;;;15.82;53.85;100917.53;4927330;28;20075;-69
2023/10/11 10:52:22;;;;;;;9.05;3.55;;;;;;;15.56;55.06;100928.72;4915785;28;20110;-69
2023/10/11 10:54:54;;;;;;;9.13;2.80;;;;;;;15.54;54.76;100924.50;4913983;28;20051;-68
2023/10/11 10:57:26;;;;;;;10.65;3.20;;;;;;;14.88;56.00;100920.44;4913611;28;20070;-69
2023/10/11 10:59:52;;;;;;;9.48;3.35;;;;;;;14.97;55.82;100912.03;4915626;28;20426;-68
2023/10/11 11:02:19;;;;;;;6.25;3.47;;;;;;;14.97;55.94;100917.28;4929346;28;20044;-69
2023/10/11 11:04:45;;;;;;;12.30;3.25;;;;;;;15.07;55.64;100909.69;4916866;28;20061;-70
2023/10/11 11:07:22;;;;;;;5.80;3.00;;;;;;;14.71;56.32;100895.09;4914285;28;20266;-68
2023/10/11 11:09:54;;;;;;;7.68;3.38;;;;;;;15.19;55.23;100908.97;4914817;28;20058;-69
2023/10/11 11:12:27;;;;;;;8.50;3.55;;;;;;;15.13;55.59;100910.19;4916233;28;20035;-69
2023/10/11 11:14:58;;;;;;;6.35;3.40;;;;;;;15.47;54.71;100897.66;4921207;28;20057;-69
2023/10/11 11:17:26;;;;;;;5.82;3.25;;;;;;;16.02;53.61;100908.41;4914032;28;20753;-69
2023/10/11 11:22:46;;;;;;;4.47;2.15;;;;;;;16.30;52.44;100892.53;4928715;28;20414;-68
2023/10/11 11:25:26;;;;;;;6.53;3.10;;;;;;;16.03;52.84;100883.75;4913220;28;20055;-69
2023/10/11 11:28:01;;;;;;;3.72;2.55;;;;;;;16.23;52.99;100901.81;4914208;28;21306;-68
2023/10/11 11:30:33;;;;;;;4.93;2.40;;;;;;;16.26;52.58;100891.03;4929077;28;20047;-68
2023/10/11 11:33:00;;;;;;;8.60;2.95;;;;;;;16.17;53.29;100907.44;4922647;28;20062;-69
2023/10/11 11:35:29;;;;;;;6.10;2.22;;;;;;;15.74;54.12;100905.69;4913028;28;20600;-70
2023/10/11 11:38:02;;;;;;;6.43;2.72;;;;;;;15.92;53.81;100903.69;4913573;28;20043;-71
2023/10/11 11:40:36;;;;;;;6.47;3.25;;;;;;;15.61;54.30;100903.88;4911706;28;20054;-70
2023/10/11 11:43:03;;;;;;;8.10;3.00;;;;;;;16.04;53.87;100901.25;4915000;28;20070;-71
2023/10/11 11:45:35;;;;;;;8.00;2.33;;;;;;;15.79;54.27;100908.03;4912716;28;20522;-69
2023/10/11 11:48:02;;;;;;;7.22;2.88;;;;;;;16.20;53.22;100912.56;4899837;29;20039;-69
2023/10/11 11:50:33;;;;;;;11.73;4.07;;;;;;;15.47;54.39;100892.41;4912824;28;20067;-69
2023/10/11 11:53:06;;;;;;;9.73;2.47;;;;;;;15.66;54.08;100904.44;4914936;28;20312;-68
2023/10/11 11:55:34;;;;;;;7.68;2.67;;;;;;;15.87;53.77;100902.28;4914060;28;20043;-69
2023/10/11 11:58:00;;;;;;;4.63;2.63;;;;;;;15.43;54.72;100883.00;4916499;28;20035;-69
2023/10/11 12:02:58;;;;;;;6.40;2.80;;;;;;;15.29;55.22;100896.16;4927872;28;20035;-68
2023/10/11 12:05:25;;;;;;;7.78;2.83;;;;;;;15.30;55.72;100892.56;4920777;28;20051;-71
2023/10/11 12:07:51;;;;;;;7.22;2.60;;;;;;;15.20;55.67;100892.25;4927816;28;20035;-68
2023/10/11 12:10:23;;;;;;;5.53;3.10;;;;;;;15.96;53.79;100883.28;4909020;28;20047;-68
2023/10/11 12:12:53;;;;;;;5.22;2.17;;;;;;;16.38;52.60;100889.44;4913553;28;20098;-68
2023/10/11 12:15:19;;;;;;;5.88;1.80;;;;;;;15.62;54.06;100873.97;4914297;28;20582;-68
2023/10/11 12:17:47;;;;;;;11.25;2.72;;;;;;;16.13;53.12;100880.47;4918395;28;20733;-68
2023/10/11 12:20:14;;;;;;;4.93;2.17;;;;;;;15.78;54.35;100875.56;4930244;28;20588;-68